Wetterstation Vordersexau
Wetterdaten: Woche 14.11.16 - 20.11.16 (KW46)
Datum Zeit Temp. A. Feuchte A. Luftdruck Regen Wind Richtung Taupunkt Windchill Windben
14.11.2016 00:00 0,3 C 86 % 1024,2 hPa 0,0 l/m 0,0 km/h W -1,8 C 0,3 C 0,0 km/h
14.11.2016 01:00 -0,4 C 86 % 1024,5 hPa 0,0 l/m 0,0 km/h W -2,4 C -0,4 C 0,0 km/h
14.11.2016 02:00 -0,4 C 85 % 1025,1 hPa 0,0 l/m 0,0 km/h W -2,6 C -0,4 C 0,0 km/h
14.11.2016 03:00 -1,5 C 85 % 1025,4 hPa 0,0 l/m 0,0 km/h W -3,7 C -1,5 C 0,0 km/h
14.11.2016 04:00 -1,6 C 85 % 1025,5 hPa 0,0 l/m 0,0 km/h W -3,8 C -1,6 C 0,0 km/h
14.11.2016 05:00 -2,1 C 85 % 1026,1 hPa 0,0 l/m 0,0 km/h W -4,3 C -2,1 C 0,0 km/h
14.11.2016 06:00 -0,9 C 84 % 1026,5 hPa 0,0 l/m 0,0 km/h W -3,3 C -0,9 C 0,0 km/h
14.11.2016 07:00 -0,7 C 83 % 1027,2 hPa 0,0 l/m 0,0 km/h NW -3,2 C -0,7 C 0,0 km/h
14.11.2016 08:00 -0,7 C 83 % 1027,8 hPa 0,0 l/m 0,0 km/h NW -3,2 C -0,7 C 0,0 km/h
14.11.2016 09:00 -0,4 C 83 % 1028,3 hPa 0,0 l/m 0,0 km/h NW -2,9 C -0,4 C 0,0 km/h
14.11.2016 10:00 0,2 C 82 % 1028,7 hPa 0,0 l/m 0,0 km/h W-NW -2,5 C 0,2 C 0,0 km/h
14.11.2016 11:00 1,1 C 80 % 1029,2 hPa 0,0 l/m 0,0 km/h NW -2,0 C 1,1 C 0,0 km/h
14.11.2016 12:00 2,1 C 82 % 1029,1 hPa 0,0 l/m 0,0 km/h W-NW -0,6 C 2,1 C 0,0 km/h
14.11.2016 13:00 2,8 C 86 % 1029,0 hPa 0,0 l/m 0,0 km/h W-NW 0,7 C 2,8 C 0,0 km/h
14.11.2016 14:00 2,9 C 87 % 1028,9 hPa 0,0 l/m 0,0 km/h W-NW 1,0 C 2,9 C 0,0 km/h
14.11.2016 15:00 2,8 C 86 % 1028,6 hPa 0,0 l/m 0,0 km/h W-NW 0,7 C 2,8 C 0,0 km/h
14.11.2016 16:00 2,5 C 86 % 1028,4 hPa 0,0 l/m 0,0 km/h S-SO 0,4 C 2,5 C 0,0 km/h
14.11.2016 17:00 2,1 C 86 % 1029,0 hPa 0,0 l/m 0,0 km/h S-SO 0,0 C 2,1 C 0,0 km/h
14.11.2016 18:00 1,9 C 86 % 1029,6 hPa 0,0 l/m 0,0 km/h S-SO -0,2 C 1,9 C 0,0 km/h
14.11.2016 19:00 1,8 C 87 % 1029,7 hPa 0,0 l/m 0,0 km/h S-SO -0,1 C 1,8 C 0,0 km/h
14.11.2016 20:00 1,6 C 87 % 1029,8 hPa 0,0 l/m 0,0 km/h S-SO -0,3 C 1,6 C 0,0 km/h
14.11.2016 21:00 1,8 C 87 % 1030,3 hPa 0,0 l/m 0,0 km/h S-SO -0,1 C 1,8 C 0,0 km/h
14.11.2016 22:00 1,6 C 87 % 1030,0 hPa 0,0 l/m 0,0 km/h S-SO -0,3 C 1,6 C 0,0 km/h
14.11.2016 23:00 1,6 C 86 % 1029,8 hPa 0,0 l/m 0,0 km/h S-SO -0,5 C 1,6 C 0,0 km/h
15.11.2016 00:00 0,5 C 87 % 1029,4 hPa 0,0 l/m 0,0 km/h S-SO -1,4 C 0,5 C 0,0 km/h
15.11.2016 01:00 -0,1 C 86 % 1029,0 hPa 0,0 l/m 0,0 km/h S-SO -2,2 C -0,1 C 0,0 km/h
15.11.2016 02:00 -0,7 C 86 % 1029,1 hPa 0,0 l/m 0,0 km/h S-SO -2,7 C -0,7 C 0,0 km/h
15.11.2016 03:00 -0,4 C 86 % 1028,6 hPa 0,0 l/m 0,0 km/h S-SO -2,4 C -0,4 C 0,0 km/h
15.11.2016 04:00 -0,1 C 85 % 1028,8 hPa 0,0 l/m 0,0 km/h SO -2,3 C -0,1 C 0,0 km/h
15.11.2016 05:00 0,5 C 85 % 1029,0 hPa 0,0 l/m 0,0 km/h SO -1,7 C 0,5 C 0,0 km/h
15.11.2016 06:00 0,6 C 85 % 1029,1 hPa 0,0 l/m 0,0 km/h SO -1,6 C 0,6 C 0,0 km/h
15.11.2016 07:00 1,3 C 85 % 1029,2 hPa 0,0 l/m 0,0 km/h SO -0,9 C 1,3 C 0,0 km/h
15.11.2016 08:00 1,8 C 85 % 1029,1 hPa 0,0 l/m 0,0 km/h SO -0,4 C 1,8 C 0,0 km/h
15.11.2016 09:00 3,0 C 86 % 1029,1 hPa 0,0 l/m 0,0 km/h O-SO 0,9 C 3,0 C 0,0 km/h
15.11.2016 10:00 5,4 C 84 % 1029,4 hPa 0,0 l/m 0,0 km/h O-SO 2,9 C 5,4 C 0,0 km/h
15.11.2016 11:00 6,5 C 78 % 1029,4 hPa 0,0 l/m 0,0 km/h W 2,9 C 6,5 C 0,0 km/h
15.11.2016 12:00 8,2 C 68 % 1028,4 hPa 0,0 l/m 1,9 km/h S 2,7 C 8,2 C 1,1 km/h
15.11.2016 13:00 9,7 C 64 % 1027,4 hPa 0,0 l/m 0,0 km/h W 3,2 C 9,7 C 0,0 km/h
15.11.2016 14:00 8,8 C 61 % 1027,5 hPa 0,0 l/m 0,0 km/h W 1,7 C 8,8 C 0,0 km/h
15.11.2016 15:00 8,4 C 64 % 1027,2 hPa 0,0 l/m 0,0 km/h W 2,0 C 8,4 C 0,0 km/h
15.11.2016 16:00 7,3 C 68 % 1026,5 hPa 0,0 l/m 0,0 km/h W 1,8 C 7,3 C 0,0 km/h
15.11.2016 17:00 6,1 C 77 % 1026,8 hPa 0,0 l/m 0,0 km/h S 2,4 C 6,1 C 0,0 km/h
15.11.2016 18:00 5,5 C 80 % 1027,3 hPa 0,0 l/m 0,0 km/h SO 2,3 C 5,5 C 0,0 km/h
15.11.2016 19:00 5,9 C 81 % 1026,8 hPa 0,0 l/m 0,0 km/h SO 2,9 C 5,9 C 0,0 km/h
15.11.2016 20:00 5,9 C 83 % 1026,7 hPa 0,0 l/m 0,0 km/h SO 3,2 C 5,9 C 0,0 km/h
15.11.2016 21:00 6,1 C 83 % 1026,2 hPa 0,0 l/m 0,0 km/h SO 3,4 C 6,1 C 0,0 km/h
15.11.2016 22:00 6,1 C 84 % 1026,2 hPa 0,0 l/m 0,0 km/h SO 3,6 C 6,1 C 0,0 km/h
15.11.2016 23:00 5,8 C 85 % 1025,6 hPa 0,5 l/m 0,0 km/h SO 3,5 C 5,8 C 0,0 km/h
16.11.2016 00:00 6,1 C 85 % 1025,5 hPa 0,5 l/m 0,0 km/h O-SO 3,8 C 6,1 C 0,0 km/h
16.11.2016 01:00 6,4 C 84 % 1024,6 hPa 0,0 l/m 0,0 km/h SO 3,9 C 6,4 C 0,0 km/h
16.11.2016 02:00 6,6 C 84 % 1024,5 hPa 0,0 l/m 0,0 km/h O-SO 4,1 C 6,6 C 0,0 km/h
16.11.2016 03:00 6,8 C 83 % 1024,1 hPa 0,5 l/m 0,0 km/h O-SO 4,1 C 6,8 C 0,0 km/h
16.11.2016 04:00 7,1 C 83 % 1023,3 hPa 0,0 l/m 0,0 km/h O-SO 4,4 C 7,1 C 0,0 km/h
16.11.2016 05:00 7,2 C 82 % 1023,1 hPa 0,0 l/m 0,0 km/h O 4,3 C 7,2 C 0,0 km/h
16.11.2016 06:00 7,2 C 81 % 1022,2 hPa 0,0 l/m 0,0 km/h O 4,2 C 7,2 C 0,0 km/h
16.11.2016 07:00 7,3 C 81 % 1022,1 hPa 0,0 l/m 0,0 km/h NO 4,3 C 7,3 C 0,0 km/h
16.11.2016 08:00 7,5 C 79 % 1021,9 hPa 0,0 l/m 0,0 km/h S 4,1 C 7,5 C 0,0 km/h
16.11.2016 09:00 8,2 C 79 % 1021,7 hPa 0,5 l/m 0,0 km/h S 4,8 C 8,2 C 0,0 km/h
16.11.2016 10:00 9,1 C 77 % 1021,1 hPa 0,5 l/m 0,0 km/h SW 5,3 C 9,1 C 0,0 km/h
16.11.2016 11:00 9,8 C 78 % 1020,8 hPa 0,5 l/m 13,0 km/h W 6,1 C 5,8 C 7,2 km/h
16.11.2016 12:00 10,2 C 76 % 1019,9 hPa 0,5 l/m 0,0 km/h W-SW 6,2 C 10,2 C 0,0 km/h
16.11.2016 13:00 10,5 C 76 % 1019,1 hPa 1,0 l/m 0,0 km/h SW 6,5 C 10,5 C 0,0 km/h
16.11.2016 14:00 10,6 C 77 % 1018,5 hPa 1,0 l/m 6,5 km/h W-SW 6,7 C 10,6 C 3,6 km/h
16.11.2016 15:00 11,2 C 85 % 1018,0 hPa 0,0 l/m 14,3 km/h W 8,8 C 6,9 C 7,9 km/h
16.11.2016 16:00 10,9 C 86 % 1017,8 hPa 0,0 l/m 13,6 km/h S-SW 8,7 C 6,8 C 7,6 km/h
16.11.2016 17:00 11,0 C 86 % 1017,4 hPa 0,0 l/m 18,8 km/h SW 8,7 C 5,0 C 10,4 km/h
16.11.2016 18:00 11,0 C 85 % 1017,8 hPa 0,0 l/m 14,3 km/h S 8,6 C 6,6 C 7,9 km/h
16.11.2016 19:00 10,8 C 84 % 1017,5 hPa 0,0 l/m 17,5 km/h S-SW 8,2 C 5,2 C 9,7 km/h
16.11.2016 20:00 10,9 C 83 % 1017,3 hPa 0,0 l/m 28,5 km/h S 8,1 C 2,2 C 15,8 km/h
16.11.2016 21:00 11,1 C 83 % 1017,0 hPa 0,0 l/m 5,2 km/h SW 8,3 C 11,1 C 2,9 km/h
16.11.2016 22:00 11,1 C 81 % 1016,6 hPa 0,0 l/m 20,1 km/h S-SW 8,0 C 4,7 C 11,2 km/h
16.11.2016 23:00 10,3 C 84 % 1016,6 hPa 0,0 l/m 21,4 km/h W-SW 7,7 C 3,2 C 11,9 km/h
17.11.2016 00:00 9,9 C 83 % 1016,4 hPa 0,0 l/m 3,9 km/h W-SW 7,2 C 9,9 C 2,2 km/h
17.11.2016 01:00 10,1 C 83 % 1015,7 hPa 0,0 l/m 7,8 km/h S-SW 7,3 C 9,1 C 4,3 km/h
17.11.2016 02:00 10,2 C 83 % 1015,3 hPa 0,0 l/m 24,0 km/h SW 7,4 C 2,4 C 13,3 km/h
17.11.2016 03:00 10,2 C 83 % 1014,5 hPa 0,0 l/m 9,7 km/h SW 7,4 C 8,0 C 5,4 km/h
17.11.2016 04:00 10,3 C 83 % 1014,1 hPa 0,0 l/m 25,3 km/h SW 7,5 C 2,2 C 14,0 km/h
17.11.2016 05:00 9,6 C 85 % 1013,2 hPa 0,0 l/m 16,8 km/h S 7,2 C 3,9 C 9,4 km/h
17.11.2016 06:00 10,0 C 85 % 1012,8 hPa 0,0 l/m 26,6 km/h W-SW 7,6 C 1,4 C 14,8 km/h
17.11.2016 07:00 9,9 C 85 % 1012,7 hPa 0,0 l/m 13,6 km/h SW 7,5 C 5,6 C 7,6 km/h
17.11.2016 08:00 10,1 C 85 % 1013,1 hPa 0,0 l/m 26,6 km/h S-SW 7,7 C 1,6 C 14,8 km/h
17.11.2016 09:00 10,9 C 84 % 1013,1 hPa 0,0 l/m 19,4 km/h SW 8,3 C 4,6 C 10,8 km/h
17.11.2016 10:00 11,2 C 83 % 1013,1 hPa 0,0 l/m 25,3 km/h W 8,4 C 3,4 C 14,0 km/h
17.11.2016 11:00 11,9 C 82 % 1012,8 hPa 0,0 l/m 26,6 km/h SW 8,9 C 4,0 C 14,8 km/h
17.11.2016 12:00 13,8 C 78 % 1012,3 hPa 0,0 l/m 45,4 km/h SW 10,0 C 3,9 C 25,2 km/h
17.11.2016 13:00 12,9 C 77 % 1011,5 hPa 0,0 l/m 2,6 km/h SW 9,0 C 12,9 C 1,4 km/h
17.11.2016 14:00 12,4 C 81 % 1011,0 hPa 0,0 l/m 19,4 km/h SW 9,2 C 6,6 C 10,8 km/h
17.11.2016 15:00 12,9 C 78 % 1010,3 hPa 0,0 l/m 25,3 km/h SW 9,2 C 5,7 C 14,0 km/h
17.11.2016 16:00 11,8 C 83 % 1010,6 hPa 0,0 l/m 7,8 km/h W 9,0 C 10,9 C 4,3 km/h
17.11.2016 17:00 11,8 C 82 % 1010,0 hPa 0,0 l/m 7,8 km/h SW 8,8 C 10,9 C 4,3 km/h
17.11.2016 18:00 11,9 C 82 % 1009,6 hPa 0,0 l/m 20,7 km/h W-SW 8,9 C 5,5 C 11,5 km/h
17.11.2016 19:00 12,1 C 80 % 1008,7 hPa 0,0 l/m 11,0 km/h S-SW 8,8 C 9,4 C 6,1 km/h
17.11.2016 20:00 11,9 C 79 % 1008,6 hPa 0,0 l/m 5,2 km/h S-SW 8,4 C 11,9 C 2,9 km/h
17.11.2016 21:00 11,1 C 79 % 1008,0 hPa 0,0 l/m 3,9 km/h S-SW 7,6 C 11,1 C 2,2 km/h
17.11.2016 22:00 10,9 C 81 % 1007,1 hPa 0,0 l/m 0,0 km/h SW 7,8 C 10,9 C 0,0 km/h
17.11.2016 23:00 11,6 C 80 % 1006,2 hPa 0,0 l/m 0,0 km/h S 8,3 C 11,6 C 0,0 km/h
18.11.2016 00:00 11,4 C 78 % 1005,5 hPa 0,0 l/m 0,0 km/h S 7,7 C 11,4 C 0,0 km/h
18.11.2016 01:00 9,8 C 81 % 1005,1 hPa 0,0 l/m 0,0 km/h W-NW 6,7 C 9,8 C 0,0 km/h
18.11.2016 02:00 11,3 C 80 % 1003,7 hPa 0,0 l/m 0,0 km/h N 8,0 C 11,3 C 0,0 km/h
18.11.2016 03:00 10,6 C 81 % 1003,4 hPa 0,0 l/m 0,0 km/h O-SO 7,5 C 10,6 C 0,0 km/h
18.11.2016 04:00 9,8 C 85 % 1003,1 hPa 0,5 l/m 0,0 km/h SO 7,4 C 9,8 C 0,0 km/h
18.11.2016 05:00 11,3 C 84 % 1002,6 hPa 0,0 l/m 0,0 km/h W 8,7 C 11,3 C 0,0 km/h
18.11.2016 06:00 13,8 C 76 % 1002,3 hPa 0,0 l/m 16,8 km/h W-SW 9,6 C 9,1 C 9,4 km/h
18.11.2016 07:00 14,5 C 67 % 1001,8 hPa 0,0 l/m 3,9 km/h S-SW 8,4 C 14,5 C 2,2 km/h
18.11.2016 08:00 14,9 C 63 % 1001,6 hPa 0,0 l/m 22,0 km/h SW 7,9 C 9,1 C 12,2 km/h
18.11.2016 09:00 15,4 C 62 % 1001,4 hPa 0,0 l/m 20,1 km/h S 8,2 C 10,2 C 11,2 km/h
18.11.2016 10:00 11,8 C 80 % 1002,7 hPa 1,6 l/m 27,9 km/h S 8,5 C 3,6 C 15,5 km/h
18.11.2016 11:00 11,2 C 84 % 1003,3 hPa 0,5 l/m 1,9 km/h W 8,6 C 11,2 C 1,1 km/h
18.11.2016 12:00 13,4 C 80 % 1002,4 hPa 0,0 l/m 22,7 km/h SW 10,0 C 7,0 C 12,6 km/h
18.11.2016 13:00 13,9 C 74 % 1002,4 hPa 0,0 l/m 22,7 km/h W 9,3 C 7,6 C 12,6 km/h
18.11.2016 14:00 12,2 C 82 % 1002,8 hPa 0,5 l/m 0,0 km/h S 9,2 C 12,2 C 0,0 km/h
18.11.2016 15:00 8,8 C 84 % 1005,0 hPa 1,6 l/m 0,0 km/h S-SO 6,2 C 8,8 C 0,0 km/h
18.11.2016 16:00 8,4 C 85 % 1005,7 hPa 2,6 l/m 6,5 km/h S 6,0 C 8,3 C 3,6 km/h
18.11.2016 17:00 7,6 C 85 % 1006,5 hPa 1,0 l/m 4,5 km/h S 5,2 C 7,6 C 2,5 km/h
18.11.2016 18:00 7,1 C 85 % 1006,8 hPa 0,5 l/m 0,0 km/h S-SW 4,8 C 7,1 C 0,0 km/h
18.11.2016 19:00 7,6 C 85 % 1006,8 hPa 0,0 l/m 3,9 km/h W-SW 5,2 C 7,6 C 2,2 km/h
18.11.2016 20:00 8,6 C 83 % 1007,4 hPa 0,5 l/m 24,6 km/h SW 5,9 C 0,0 C 13,7 km/h
18.11.2016 21:00 8,9 C 79 % 1007,8 hPa 0,0 l/m 18,8 km/h S 5,5 C 2,3 C 10,4 km/h
18.11.2016 22:00 8,9 C 77 % 1008,1 hPa 0,0 l/m 7,1 km/h SW 5,1 C 8,4 C 4,0 km/h
18.11.2016 23:00 8,9 C 76 % 1007,7 hPa 0,0 l/m 7,1 km/h S 4,9 C 8,4 C 4,0 km/h
19.11.2016 00:00 8,4 C 77 % 1007,4 hPa 0,0 l/m 0,0 km/h S 4,6 C 8,4 C 0,0 km/h
19.11.2016 01:00 8,4 C 77 % 1007,3 hPa 0,0 l/m 0,0 km/h O 4,6 C 8,4 C 0,0 km/h
19.11.2016 02:00 7,3 C 82 % 1006,7 hPa 0,0 l/m 0,0 km/h NO 4,4 C 7,3 C 0,0 km/h
19.11.2016 03:00 6,9 C 85 % 1006,4 hPa 0,0 l/m 0,0 km/h NO 4,6 C 6,9 C 0,0 km/h
19.11.2016 04:00 6,8 C 85 % 1006,2 hPa 0,0 l/m 0,0 km/h O-SO 4,5 C 6,8 C 0,0 km/h
19.11.2016 05:00 6,8 C 85 % 1005,9 hPa 0,5 l/m 0,0 km/h SO 4,5 C 6,8 C 0,0 km/h
19.11.2016 06:00 6,9 C 85 % 1005,7 hPa 0,0 l/m 0,0 km/h O-SO 4,6 C 6,9 C 0,0 km/h
19.11.2016 07:00 6,8 C 84 % 1005,1 hPa 0,5 l/m 0,0 km/h SW 4,3 C 6,8 C 0,0 km/h
19.11.2016 08:00 6,8 C 82 % 1006,8 hPa 1,6 l/m 16,8 km/h W 3,9 C 0,4 C 9,4 km/h
19.11.2016 09:00 6,5 C 84 % 1007,9 hPa 0,0 l/m 22,0 km/h SW 4,0 C -2,0 C 12,2 km/h
19.11.2016 10:00 5,8 C 83 % 1008,7 hPa 1,0 l/m 4,5 km/h S-SW 3,1 C 5,8 C 2,5 km/h
19.11.2016 11:00 5,8 C 84 % 1009,4 hPa 0,0 l/m 13,6 km/h S-SW 3,3 C 0,8 C 7,6 km/h
19.11.2016 12:00 6,3 C 86 % 1009,8 hPa 0,0 l/m 23,3 km/h SW 4,1 C -2,6 C 13,0 km/h
19.11.2016 13:00 8,4 C 86 % 1009,8 hPa 0,0 l/m 20,1 km/h W-SW 6,2 C 1,2 C 11,2 km/h
19.11.2016 14:00 9,2 C 78 % 1010,2 hPa 0,0 l/m 13,6 km/h SW 5,6 C 4,8 C 7,6 km/h
19.11.2016 15:00 10,2 C 73 % 1010,4 hPa 0,0 l/m 17,5 km/h W-SW 5,6 C 4,4 C 9,7 km/h
19.11.2016 16:00 7,9 C 76 % 1010,2 hPa 0,0 l/m 0,0 km/h SO 3,9 C 7,9 C 0,0 km/h
19.11.2016 17:00 6,5 C 82 % 1010,7 hPa 0,5 l/m 3,2 km/h SO 3,7 C 6,5 C 1,8 km/h
19.11.2016 18:00 5,4 C 83 % 1010,5 hPa 0,0 l/m 0,0 km/h NO 2,7 C 5,4 C 0,0 km/h
19.11.2016 19:00 3,6 C 85 % 1010,0 hPa 0,0 l/m 0,0 km/h NO 1,3 C 3,6 C 0,0 km/h
19.11.2016 20:00 2,9 C 86 % 1009,2 hPa 0,0 l/m 0,0 km/h O-SO 0,8 C 2,9 C 0,0 km/h
19.11.2016 21:00 2,6 C 86 % 1008,6 hPa 0,0 l/m 0,0 km/h O-SO 0,5 C 2,6 C 0,0 km/h
19.11.2016 22:00 3,1 C 85 % 1008,1 hPa 0,0 l/m 0,0 km/h O-SO 0,8 C 3,1 C 0,0 km/h
19.11.2016 23:00 3,3 C 84 % 1007,5 hPa 0,0 l/m 0,0 km/h O-SO 0,9 C 3,3 C 0,0 km/h
20.11.2016 00:00 3,3 C 85 % 1006,9 hPa 0,0 l/m 0,0 km/h O-SO 1,0 C 3,3 C 0,0 km/h
20.11.2016 01:00 3,6 C 85 % 1006,2 hPa 0,0 l/m 1,3 km/h O-NO 1,3 C 3,6 C 0,7 km/h
20.11.2016 02:00 3,4 C 85 % 1005,3 hPa 0,0 l/m 0,0 km/h SO 1,1 C 3,4 C 0,0 km/h
20.11.2016 03:00 3,9 C 86 % 1003,8 hPa 0,0 l/m 0,0 km/h NO 1,8 C 3,9 C 0,0 km/h
20.11.2016 04:00 3,6 C 86 % 1002,8 hPa 0,0 l/m 0,0 km/h N 1,5 C 3,6 C 0,0 km/h
20.11.2016 05:00 1,0 C 86 % 1003,4 hPa 0,0 l/m 0,0 km/h O-NO -1,1 C 1,0 C 0,0 km/h
20.11.2016 06:00 0,6 C 86 % 1002,6 hPa 0,0 l/m 0,0 km/h O-NO -1,5 C 0,6 C 0,0 km/h
20.11.2016 07:00 -0,1 C 85 % 1001,8 hPa 0,0 l/m 0,0 km/h O -2,3 C -0,1 C 0,0 km/h
20.11.2016 08:00 0,5 C 85 % 1002,1 hPa 0,0 l/m 0,0 km/h NO -1,7 C 0,5 C 0,0 km/h
20.11.2016 09:00 3,9 C 80 % 1001,9 hPa 0,0 l/m 0,0 km/h W 0,8 C 3,9 C 0,0 km/h
20.11.2016 10:00 10,7 C 84 % 1002,4 hPa 0,0 l/m 0,0 km/h NO 8,1 C 10,7 C 0,0 km/h
20.11.2016 11:00 18,2 C 57 % 1002,6 hPa 0,0 l/m 0,0 km/h S-SO 9,5 C 18,2 C 0,0 km/h
20.11.2016 12:00 19,1 C 42 % 1002,1 hPa 0,0 l/m 28,5 km/h W 5,9 C 13,7 C 15,8 km/h
20.11.2016 13:00 19,4 C 44 % 1001,7 hPa 0,0 l/m 14,3 km/h SW 6,8 C 16,7 C 7,9 km/h
20.11.2016 14:00 21,0 C 42 % 1001,5 hPa 0,0 l/m 20,1 km/h SW 7,6 C 17,5 C 11,2 km/h
20.11.2016 15:00 21,1 C 41 % 1001,5 hPa 0,0 l/m 3,2 km/h S-SW 7,3 C 21,1 C 1,8 km/h
20.11.2016 16:00 17,5 C 46 % 1002,5 hPa 0,0 l/m 0,0 km/h SO 5,8 C 17,5 C 0,0 km/h
20.11.2016 17:00 12,8 C 58 % 1002,6 hPa 0,0 l/m 0,0 km/h O-NO 4,7 C 12,8 C 0,0 km/h
20.11.2016 18:00 9,3 C 71 % 1002,8 hPa 0,0 l/m 0,0 km/h O-SO 4,3 C 9,3 C 0,0 km/h
20.11.2016 19:00 8,3 C 75 % 1003,1 hPa 0,0 l/m 0,0 km/h O 4,1 C 8,3 C 0,0 km/h
20.11.2016 20:00 7,6 C 77 % 1002,8 hPa 0,0 l/m 0,0 km/h O-NO 3,8 C 7,6 C 0,0 km/h
20.11.2016 21:00 7,3 C 79 % 1002,7 hPa 0,0 l/m 0,0 km/h O-NO 3,9 C 7,3 C 0,0 km/h
20.11.2016 22:00 6,7 C 80 % 1002,8 hPa 0,0 l/m 0,0 km/h O-SO 3,5 C 6,7 C 0,0 km/h
20.11.2016 23:00 5,8 C 81 % 1002,7 hPa 0,0 l/m 0,0 km/h NO 2,8 C 5,8 C 0,0 km/h
Min-Datum _ 14.11.16 20.11.16 18.11.16 - 14.11.16 - 14.11.16 19.11.16 14.11.16
_ Min-Zeit 05:10 15:10 09:10 - 00:10 - 05:10 12:10 00:10
Minimum _ -2,1 C 41 % 1001,4 hPa - 0,0 km/h - -4,3 C -2,6 C 0,0 km/h
Max-Datum _ 20.11.16 14.11.16 14.11.16 18.11.16 17.11.16 - 17.11.16 20.11.16 17.11.16
_ Max-Zeit 15:10 14:10 21:10 16:10 12:10 - 12:10 15:10 12:10
Maximum _ 21,1 C 87 % 1030,3 hPa 2,6 l/m 45,4 km/h
SW
- 10,0 C 21,1 C 25,2 km/h
SW
Durchschnitt _ 7,3 C 80 % 1014,8 hPa #19,2 l/m 5,7 km/h SW 4,0 C 5,8 C 3,2 km/h
www.sexauwetter.de